Hovedside
METAR-TAF:

METAR-TAF

Lufthavner :

East Jakarta, Indonesia

breddegrad: 06-15-59S, lengdegrad: 106-53-28E, høyde over havet: 25 m

Gjeldene værobservasjon

Denne rapporten ble laget for 44 minutter siden, klokken 23:30 UTC
Vind 3 kt fra Sørvest
Temperatur 26°C
Luftfuktighet 89%
Trykk 1010 hPa
Sikt: 3000 m
Spredte skyer i en høyde av 1800 ft
dis,

METAR: WIHH 212330Z 22003KT 3000 HZ SCT018 26/24 Q1010 NOSIG METAR WIMM NIL

Tid: 07:14 (00:14 UTC)

Varsel

Denne rapporten ble laget for 1 time og 14 minutter siden, klokken 23:00 UTC
Varsel gyldig fra 22. klokken 00 UTC til 23. klokken 00 UTC
Vind 6 kt fra Sør-sørøst
Sikt: 5000 m
Spredte skyer i en høyde av 2000 ft
dis
Blir
fra 22. klokken 06 UTC til 22. klokken 08 UTC
Vind 8 kt fra Nord-nordøst
Sikt: 7000 m
Få skyer i en høyde av 1800 ft

TAF: WIHH 212300Z 2200/2300 15006KT 5000 HZ SCT020 BECMG 2206/2208 03008KT 7000 FEW018

Værobservasjoner og værvarsel for over 4000 flyplasser (METAR- og TAF-rapporter).

Tilgjengelige stasjoner er representert av de røde og gule prikkene på kartet.

Hold musepekeren over prikken for å se navnet på stasjonen.

Klikk så for å se værobservasjoner og -varsler.

For å forandre kartet kan du klikke på den grønne knappen med svart kryss for å zoome inn, på den grønne knappen med strek for å zoome ut, eller på de grønne pilene for å se tilstøtende kart.


METAR-TAF: